sensor_id;sensor_type;location;lat;lon;timestamp;P1;durP1;ratioP1;P2;durP2;ratioP2
45618;SDS011;31343;47.520;19.144;2022-11-15T00:00:27;23.27;;;13.32;;
45618;SDS011;31343;47.520;19.144;2022-11-15T00:02:53;21.75;;;12.77;;
45618;SDS011;31343;47.520;19.144;2022-11-15T00:05:19;23.83;;;12.32;;
45618;SDS011;31343;47.520;19.144;2022-11-15T00:07:44;20.13;;;11.80;;
45618;SDS011;31343;47.520;19.144;2022-11-15T00:10:10;21.10;;;12.32;;
45618;SDS011;31343;47.520;19.144;2022-11-15T00:12:36;23.98;;;13.05;;
45618;SDS011;31343;47.520;19.144;2022-11-15T00:15:02;20.75;;;12.95;;
45618;SDS011;31343;47.520;19.144;2022-11-15T00:17:28;20.17;;;12.13;;
45618;SDS011;31343;47.520;19.144;2022-11-15T00:19:54;22.33;;;11.98;;
45618;SDS011;31343;47.520;19.144;2022-11-15T00:22:20;22.42;;;12.05;;
45618;SDS011;31343;47.520;19.144;2022-11-15T00:24:46;24.45;;;12.88;;
45618;SDS011;31343;47.520;19.144;2022-11-15T00:27:12;22.40;;;11.77;;
45618;SDS011;31343;47.520;19.144;2022-11-15T00:29:37;21.00;;;11.75;;
45618;SDS011;31343;47.520;19.144;2022-11-15T00:32:04;19.80;;;11.10;;
45618;SDS011;31343;47.520;19.144;2022-11-15T00:34:30;19.63;;;11.98;;
45618;SDS011;31343;47.520;19.144;2022-11-15T00:36:55;21.42;;;11.80;;
45618;SDS011;31343;47.520;19.144;2022-11-15T00:39:21;20.70;;;10.80;;
45618;SDS011;31343;47.520;19.144;2022-11-15T00:41:47;22.30;;;11.35;;
45618;SDS011;31343;47.520;19.144;2022-11-15T00:44:13;19.17;;;10.95;;
45618;SDS011;31343;47.520;19.144;2022-11-15T00:46:38;21.05;;;11.95;;
45618;SDS011;31343;47.520;19.144;2022-11-15T00:49:04;20.20;;;11.52;;
45618;SDS011;31343;47.520;19.144;2022-11-15T00:51:30;19.73;;;10.88;;
45618;SDS011;31343;47.520;19.144;2022-11-15T00:53:55;19.38;;;10.23;;
45618;SDS011;31343;47.520;19.144;2022-11-15T00:56:21;24.13;;;11.93;;
45618;SDS011;31343;47.520;19.144;2022-11-15T00:58:46;22.40;;;12.13;;
45618;SDS011;31343;47.520;19.144;2022-11-15T01:01:13;20.50;;;11.13;;
45618;SDS011;31343;47.520;19.144;2022-11-15T01:03:39;22.77;;;11.82;;
45618;SDS011;31343;47.520;19.144;2022-11-15T01:06:06;22.17;;;12.45;;
45618;SDS011;31343;47.520;19.144;2022-11-15T01:08:33;24.63;;;13.82;;
45618;SDS011;31343;47.520;19.144;2022-11-15T01:11:06;21.67;;;10.73;;
45618;SDS011;31343;47.520;19.144;2022-11-15T01:13:34;23.92;;;12.25;;
45618;SDS011;31343;47.520;19.144;2022-11-15T01:18:59;24.25;;;12.60;;
45618;SDS011;31343;47.520;19.144;2022-11-15T01:21:24;22.17;;;11.40;;
45618;SDS011;31343;47.520;19.144;2022-11-15T01:23:54;23.60;;;13.63;;
45618;SDS011;31343;47.520;19.144;2022-11-15T01:26:21;23.05;;;12.57;;
45618;SDS011;31343;47.520;19.144;2022-11-15T01:28:47;23.60;;;11.10;;
45618;SDS011;31343;47.520;19.144;2022-11-15T01:31:14;24.55;;;13.27;;
45618;SDS011;31343;47.520;19.144;2022-11-15T01:33:41;22.92;;;11.82;;
45618;SDS011;31343;47.520;19.144;2022-11-15T01:36:09;20.17;;;11.77;;
45618;SDS011;31343;47.520;19.144;2022-11-15T01:38:37;20.13;;;10.32;;
45618;SDS011;31343;47.520;19.144;2022-11-15T01:41:03;19.23;;;10.60;;
45618;SDS011;31343;47.520;19.144;2022-11-15T01:43:30;16.42;;;9.45;;
45618;SDS011;31343;47.520;19.144;2022-11-15T01:46:06;17.35;;;9.52;;
45618;SDS011;31343;47.520;19.144;2022-11-15T01:48:46;18.45;;;9.80;;
45618;SDS011;31343;47.520;19.144;2022-11-15T01:51:15;18.92;;;10.50;;
45618;SDS011;31343;47.520;19.144;2022-11-15T01:53:42;17.98;;;9.55;;
45618;SDS011;31343;47.520;19.144;2022-11-15T01:56:11;16.15;;;9.73;;
45618;SDS011;31343;47.520;19.144;2022-11-15T01:58:41;15.38;;;9.02;;
45618;SDS011;31343;47.520;19.144;2022-11-15T02:01:09;14.52;;;9.18;;
45618;SDS011;31343;47.520;19.144;2022-11-15T02:06:40;16.42;;;9.55;;
45618;SDS011;31343;47.520;19.144;2022-11-15T02:09:07;18.90;;;10.35;;
45618;SDS011;31343;47.520;19.144;2022-11-15T02:11:33;18.35;;;10.75;;
45618;SDS011;31343;47.520;19.144;2022-11-15T02:14:00;16.08;;;9.27;;
45618;SDS011;31343;47.520;19.144;2022-11-15T02:22:05;15.55;;;9.23;;
45618;SDS011;31343;47.520;19.144;2022-11-15T02:33:08;18.85;;;10.15;;
45618;SDS011;31343;47.520;19.144;2022-11-15T02:35:48;16.70;;;9.20;;
45618;SDS011;31343;47.520;19.144;2022-11-15T02:41:13;14.80;;;8.68;;
45618;SDS011;31343;47.520;19.144;2022-11-15T02:43:53;14.65;;;9.38;;
45618;SDS011;31343;47.520;19.144;2022-11-15T02:46:28;16.42;;;9.60;;
45618;SDS011;31343;47.520;19.144;2022-11-15T02:49:23;17.10;;;8.98;;
45618;SDS011;31343;47.520;19.144;2022-11-15T02:51:51;16.98;;;9.27;;
45618;SDS011;31343;47.520;19.144;2022-11-15T02:54:20;16.98;;;9.60;;
45618;SDS011;31343;47.520;19.144;2022-11-15T02:56:47;17.67;;;10.25;;
45618;SDS011;31343;47.520;19.144;2022-11-15T03:02:32;16.38;;;9.10;;
45618;SDS011;31343;47.520;19.144;2022-11-15T03:04:55;17.13;;;9.70;;
45618;SDS011;31343;47.520;19.144;2022-11-15T03:07:50;16.23;;;8.30;;
45618;SDS011;31343;47.520;19.144;2022-11-15T03:10:30;16.63;;;9.90;;
45618;SDS011;31343;47.520;19.144;2022-11-15T03:16:02;16.73;;;9.90;;
45618;SDS011;31343;47.520;19.144;2022-11-15T03:19:00;12.85;;;8.65;;
45618;SDS011;31343;47.520;19.144;2022-11-15T03:21:35;16.30;;;8.50;;
45618;SDS011;31343;47.520;19.144;2022-11-15T03:24:03;16.77;;;9.40;;
45618;SDS011;31343;47.520;19.144;2022-11-15T03:26:31;20.63;;;10.32;;
45618;SDS011;31343;47.520;19.144;2022-11-15T03:29:00;17.10;;;9.48;;
45618;SDS011;31343;47.520;19.144;2022-11-15T03:31:48;16.77;;;9.30;;
45618;SDS011;31343;47.520;19.144;2022-11-15T03:37:06;15.48;;;9.45;;
45618;SDS011;31343;47.520;19.144;2022-11-15T03:39:34;14.95;;;8.60;;
45618;SDS011;31343;47.520;19.144;2022-11-15T03:45:02;18.30;;;9.98;;
45618;SDS011;31343;47.520;19.144;2022-11-15T03:47:51;15.80;;;9.45;;
45618;SDS011;31343;47.520;19.144;2022-11-15T03:50:30;16.35;;;9.65;;
45618;SDS011;31343;47.520;19.144;2022-11-15T03:52:56;19.83;;;10.52;;
45618;SDS011;31343;47.520;19.144;2022-11-15T03:55:23;15.10;;;8.60;;
45618;SDS011;31343;47.520;19.144;2022-11-15T03:57:50;17.70;;;9.05;;
45618;SDS011;31343;47.520;19.144;2022-11-15T04:00:19;17.33;;;10.00;;
45618;SDS011;31343;47.520;19.144;2022-11-15T04:02:45;20.10;;;11.00;;
45618;SDS011;31343;47.520;19.144;2022-11-15T04:05:11;19.65;;;11.63;;
45618;SDS011;31343;47.520;19.144;2022-11-15T04:07:36;20.92;;;12.32;;
45618;SDS011;31343;47.520;19.144;2022-11-15T04:10:02;23.15;;;11.88;;
45618;SDS011;31343;47.520;19.144;2022-11-15T04:12:29;23.13;;;11.55;;
45618;SDS011;31343;47.520;19.144;2022-11-15T04:15:00;22.00;;;12.35;;
45618;SDS011;31343;47.520;19.144;2022-11-15T04:17:36;24.48;;;12.45;;
45618;SDS011;31343;47.520;19.144;2022-11-15T04:20:13;22.58;;;11.93;;
45618;SDS011;31343;47.520;19.144;2022-11-15T04:23:09;21.25;;;10.77;;
45618;SDS011;31343;47.520;19.144;2022-11-15T04:25:59;20.00;;;10.90;;
45618;SDS011;31343;47.520;19.144;2022-11-15T04:28:26;21.08;;;10.35;;
45618;SDS011;31343;47.520;19.144;2022-11-15T04:30:52;19.98;;;11.50;;
45618;SDS011;31343;47.520;19.144;2022-11-15T04:33:18;20.08;;;11.90;;
45618;SDS011;31343;47.520;19.144;2022-11-15T04:35:44;23.15;;;12.13;;
45618;SDS011;31343;47.520;19.144;2022-11-15T04:38:30;20.08;;;11.40;;
45618;SDS011;31343;47.520;19.144;2022-11-15T04:40:55;19.92;;;11.23;;
45618;SDS011;31343;47.520;19.144;2022-11-15T04:43:22;18.00;;;11.07;;
45618;SDS011;31343;47.520;19.144;2022-11-15T04:45:48;22.70;;;11.93;;
45618;SDS011;31343;47.520;19.144;2022-11-15T04:48:13;21.63;;;11.82;;
45618;SDS011;31343;47.520;19.144;2022-11-15T04:50:39;21.05;;;11.38;;
45618;SDS011;31343;47.520;19.144;2022-11-15T04:53:05;21.25;;;11.13;;
45618;SDS011;31343;47.520;19.144;2022-11-15T04:55:31;20.70;;;11.00;;
45618;SDS011;31343;47.520;19.144;2022-11-15T04:57:57;20.02;;;10.70;;
45618;SDS011;31343;47.520;19.144;2022-11-15T05:00:24;22.17;;;11.23;;
45618;SDS011;31343;47.520;19.144;2022-11-15T05:02:50;22.40;;;10.63;;
45618;SDS011;31343;47.520;19.144;2022-11-15T05:05:34;16.38;;;9.50;;
45618;SDS011;31343;47.520;19.144;2022-11-15T05:08:00;19.90;;;11.05;;
45618;SDS011;31343;47.520;19.144;2022-11-15T05:10:25;18.48;;;10.07;;
45618;SDS011;31343;47.520;19.144;2022-11-15T05:12:51;18.77;;;10.15;;
45618;SDS011;31343;47.520;19.144;2022-11-15T05:15:17;21.65;;;11.07;;
45618;SDS011;31343;47.520;19.144;2022-11-15T05:17:42;20.95;;;10.48;;
45618;SDS011;31343;47.520;19.144;2022-11-15T05:20:08;20.27;;;11.30;;
45618;SDS011;31343;47.520;19.144;2022-11-15T05:22:34;18.02;;;9.88;;
45618;SDS011;31343;47.520;19.144;2022-11-15T05:25:01;21.38;;;10.60;;
45618;SDS011;31343;47.520;19.144;2022-11-15T05:27:28;18.83;;;10.05;;
45618;SDS011;31343;47.520;19.144;2022-11-15T05:29:53;17.70;;;9.95;;
45618;SDS011;31343;47.520;19.144;2022-11-15T05:32:19;18.40;;;10.48;;
45618;SDS011;31343;47.520;19.144;2022-11-15T05:34:46;20.42;;;10.73;;
45618;SDS011;31343;47.520;19.144;2022-11-15T05:37:12;16.27;;;9.50;;
45618;SDS011;31343;47.520;19.144;2022-11-15T05:39:38;18.13;;;10.52;;
45618;SDS011;31343;47.520;19.144;2022-11-15T05:42:11;22.15;;;12.63;;
45618;SDS011;31343;47.520;19.144;2022-11-15T05:44:39;18.75;;;10.00;;
45618;SDS011;31343;47.520;19.144;2022-11-15T05:47:09;20.10;;;11.07;;
45618;SDS011;31343;47.520;19.144;2022-11-15T05:49:39;18.35;;;10.88;;
45618;SDS011;31343;47.520;19.144;2022-11-15T05:52:07;20.27;;;11.25;;
45618;SDS011;31343;47.520;19.144;2022-11-15T05:54:36;20.42;;;10.82;;
45618;SDS011;31343;47.520;19.144;2022-11-15T05:57:05;19.75;;;10.75;;
45618;SDS011;31343;47.520;19.144;2022-11-15T05:59:31;21.05;;;10.68;;
45618;SDS011;31343;47.520;19.144;2022-11-15T06:01:58;21.40;;;11.98;;
45618;SDS011;31343;47.520;19.144;2022-11-15T06:04:24;18.98;;;11.73;;
45618;SDS011;31343;47.520;19.144;2022-11-15T06:06:50;20.45;;;11.77;;
45618;SDS011;31343;47.520;19.144;2022-11-15T06:09:15;22.65;;;10.52;;
45618;SDS011;31343;47.520;19.144;2022-11-15T06:11:41;21.67;;;11.13;;
45618;SDS011;31343;47.520;19.144;2022-11-15T06:14:07;23.58;;;12.88;;
45618;SDS011;31343;47.520;19.144;2022-11-15T06:16:32;22.50;;;12.75;;
45618;SDS011;31343;47.520;19.144;2022-11-15T06:18:58;18.23;;;10.40;;
45618;SDS011;31343;47.520;19.144;2022-11-15T06:21:24;21.80;;;10.85;;
45618;SDS011;31343;47.520;19.144;2022-11-15T06:23:49;16.33;;;10.05;;
45618;SDS011;31343;47.520;19.144;2022-11-15T06:26:15;22.25;;;11.30;;
45618;SDS011;31343;47.520;19.144;2022-11-15T06:28:41;19.77;;;10.80;;
45618;SDS011;31343;47.520;19.144;2022-11-15T06:31:07;20.48;;;12.32;;
45618;SDS011;31343;47.520;19.144;2022-11-15T06:33:34;19.30;;;10.77;;
45618;SDS011;31343;47.520;19.144;2022-11-15T06:36:04;21.20;;;12.00;;
45618;SDS011;31343;47.520;19.144;2022-11-15T06:38:31;21.52;;;11.10;;
45618;SDS011;31343;47.520;19.144;2022-11-15T06:41:04;18.55;;;10.43;;
45618;SDS011;31343;47.520;19.144;2022-11-15T06:43:31;18.77;;;10.77;;
45618;SDS011;31343;47.520;19.144;2022-11-15T06:45:57;19.17;;;11.63;;
45618;SDS011;31343;47.520;19.144;2022-11-15T06:48:24;21.83;;;12.50;;
45618;SDS011;31343;47.520;19.144;2022-11-15T06:50:51;19.88;;;11.10;;
45618;SDS011;31343;47.520;19.144;2022-11-15T06:53:18;20.95;;;11.70;;
45618;SDS011;31343;47.520;19.144;2022-11-15T06:55:43;19.55;;;12.38;;
45618;SDS011;31343;47.520;19.144;2022-11-15T06:58:09;19.30;;;11.82;;
45618;SDS011;31343;47.520;19.144;2022-11-15T07:00:35;24.42;;;14.50;;
45618;SDS011;31343;47.520;19.144;2022-11-15T07:03:00;22.58;;;13.05;;
45618;SDS011;31343;47.520;19.144;2022-11-15T07:05:27;19.50;;;11.75;;
45618;SDS011;31343;47.520;19.144;2022-11-15T07:07:53;22.25;;;11.63;;
45618;SDS011;31343;47.520;19.144;2022-11-15T07:10:20;18.25;;;11.30;;
45618;SDS011;31343;47.520;19.144;2022-11-15T07:12:47;20.95;;;12.93;;
45618;SDS011;31343;47.520;19.144;2022-11-15T07:15:14;21.85;;;12.70;;
45618;SDS011;31343;47.520;19.144;2022-11-15T07:17:40;23.00;;;13.45;;
45618;SDS011;31343;47.520;19.144;2022-11-15T07:20:06;21.00;;;13.02;;
45618;SDS011;31343;47.520;19.144;2022-11-15T07:22:32;21.05;;;13.10;;
45618;SDS011;31343;47.520;19.144;2022-11-15T07:25:00;19.55;;;11.68;;
45618;SDS011;31343;47.520;19.144;2022-11-15T07:27:25;20.65;;;12.07;;
45618;SDS011;31343;47.520;19.144;2022-11-15T07:29:51;21.10;;;13.02;;
45618;SDS011;31343;47.520;19.144;2022-11-15T07:32:17;22.10;;;13.68;;
45618;SDS011;31343;47.520;19.144;2022-11-15T07:34:43;24.50;;;13.07;;
45618;SDS011;31343;47.520;19.144;2022-11-15T07:37:10;22.95;;;14.07;;
45618;SDS011;31343;47.520;19.144;2022-11-15T07:39:36;22.13;;;13.10;;
45618;SDS011;31343;47.520;19.144;2022-11-15T07:42:01;22.35;;;13.93;;
45618;SDS011;31343;47.520;19.144;2022-11-15T07:44:46;25.38;;;15.18;;
45618;SDS011;31343;47.520;19.144;2022-11-15T07:47:11;24.52;;;15.00;;
45618;SDS011;31343;47.520;19.144;2022-11-15T07:49:37;22.67;;;13.88;;
45618;SDS011;31343;47.520;19.144;2022-11-15T07:52:03;24.83;;;14.85;;
45618;SDS011;31343;47.520;19.144;2022-11-15T07:54:29;23.35;;;14.90;;
45618;SDS011;31343;47.520;19.144;2022-11-15T07:56:54;26.55;;;15.68;;
45618;SDS011;31343;47.520;19.144;2022-11-15T07:59:20;23.77;;;13.63;;
45618;SDS011;31343;47.520;19.144;2022-11-15T08:01:46;24.67;;;14.45;;
45618;SDS011;31343;47.520;19.144;2022-11-15T08:04:12;22.75;;;14.05;;
45618;SDS011;31343;47.520;19.144;2022-11-15T08:06:37;24.27;;;15.10;;
45618;SDS011;31343;47.520;19.144;2022-11-15T08:09:03;24.85;;;15.68;;
45618;SDS011;31343;47.520;19.144;2022-11-15T08:11:29;25.40;;;14.20;;
45618;SDS011;31343;47.520;19.144;2022-11-15T08:13:54;26.02;;;14.43;;
45618;SDS011;31343;47.520;19.144;2022-11-15T08:16:20;22.58;;;13.15;;
45618;SDS011;31343;47.520;19.144;2022-11-15T08:18:46;25.73;;;14.98;;
45618;SDS011;31343;47.520;19.144;2022-11-15T08:21:18;25.45;;;14.20;;
45618;SDS011;31343;47.520;19.144;2022-11-15T08:23:45;24.90;;;14.75;;
45618;SDS011;31343;47.520;19.144;2022-11-15T08:26:11;22.45;;;13.30;;
45618;SDS011;31343;47.520;19.144;2022-11-15T08:28:37;27.08;;;16.55;;
45618;SDS011;31343;47.520;19.144;2022-11-15T08:31:03;24.23;;;15.38;;
45618;SDS011;31343;47.520;19.144;2022-11-15T08:33:30;25.63;;;14.90;;
45618;SDS011;31343;47.520;19.144;2022-11-15T08:35:57;27.17;;;15.65;;
45618;SDS011;31343;47.520;19.144;2022-11-15T08:38:24;26.42;;;15.85;;
45618;SDS011;31343;47.520;19.144;2022-11-15T08:40:50;27.02;;;16.08;;
45618;SDS011;31343;47.520;19.144;2022-11-15T08:43:18;26.35;;;15.75;;
45618;SDS011;31343;47.520;19.144;2022-11-15T08:45:43;38.10;;;23.02;;
45618;SDS011;31343;47.520;19.144;2022-11-15T08:48:09;34.60;;;21.30;;
45618;SDS011;31343;47.520;19.144;2022-11-15T08:50:35;34.05;;;20.17;;
45618;SDS011;31343;47.520;19.144;2022-11-15T08:53:04;29.15;;;16.27;;
45618;SDS011;31343;47.520;19.144;2022-11-15T08:55:31;28.15;;;15.90;;
45618;SDS011;31343;47.520;19.144;2022-11-15T08:57:57;25.95;;;14.80;;
45618;SDS011;31343;47.520;19.144;2022-11-15T09:00:23;26.52;;;15.52;;
45618;SDS011;31343;47.520;19.144;2022-11-15T09:02:49;27.90;;;17.40;;
45618;SDS011;31343;47.520;19.144;2022-11-15T09:05:14;26.42;;;15.85;;
45618;SDS011;31343;47.520;19.144;2022-11-15T09:07:41;24.45;;;14.50;;
45618;SDS011;31343;47.520;19.144;2022-11-15T09:10:06;25.80;;;15.52;;
45618;SDS011;31343;47.520;19.144;2022-11-15T09:12:33;25.90;;;15.20;;
45618;SDS011;31343;47.520;19.144;2022-11-15T09:14:58;23.50;;;15.43;;
45618;SDS011;31343;47.520;19.144;2022-11-15T09:17:24;26.52;;;15.05;;
45618;SDS011;31343;47.520;19.144;2022-11-15T09:19:50;25.95;;;15.48;;
45618;SDS011;31343;47.520;19.144;2022-11-15T09:22:15;24.33;;;14.70;;
45618;SDS011;31343;47.520;19.144;2022-11-15T09:24:41;25.52;;;14.20;;
45618;SDS011;31343;47.520;19.144;2022-11-15T09:27:07;24.25;;;14.32;;
45618;SDS011;31343;47.520;19.144;2022-11-15T09:29:32;27.58;;;16.10;;
45618;SDS011;31343;47.520;19.144;2022-11-15T09:31:58;26.25;;;16.45;;
45618;SDS011;31343;47.520;19.144;2022-11-15T09:34:24;25.10;;;16.00;;
45618;SDS011;31343;47.520;19.144;2022-11-15T09:36:50;27.42;;;15.57;;
45618;SDS011;31343;47.520;19.144;2022-11-15T09:39:15;23.67;;;14.68;;
45618;SDS011;31343;47.520;19.144;2022-11-15T09:41:50;26.13;;;15.52;;
45618;SDS011;31343;47.520;19.144;2022-11-15T09:50:39;30.00;;;15.68;;
45618;SDS011;31343;47.520;19.144;2022-11-15T09:53:13;29.23;;;15.48;;
45618;SDS011;31343;47.520;19.144;2022-11-15T09:56:32;27.42;;;17.30;;
45618;SDS011;31343;47.520;19.144;2022-11-15T09:58:45;27.02;;;17.13;;
45618;SDS011;31343;47.520;19.144;2022-11-15T10:04:09;24.70;;;15.07;;
45618;SDS011;31343;47.520;19.144;2022-11-15T10:06:36;25.35;;;17.08;;
45618;SDS011;31343;47.520;19.144;2022-11-15T10:11:54;26.05;;;17.45;;
45618;SDS011;31343;47.520;19.144;2022-11-15T10:14:21;27.90;;;17.25;;
45618;SDS011;31343;47.520;19.144;2022-11-15T10:20:10;30.23;;;16.67;;
45618;SDS011;31343;47.520;19.144;2022-11-15T10:22:45;29.25;;;16.23;;
45618;SDS011;31343;47.520;19.144;2022-11-15T10:25:21;25.27;;;16.63;;
45618;SDS011;31343;47.520;19.144;2022-11-15T10:27:53;24.42;;;15.98;;
45618;SDS011;31343;47.520;19.144;2022-11-15T10:30:47;27.48;;;16.08;;
45618;SDS011;31343;47.520;19.144;2022-11-15T10:33:23;25.02;;;16.25;;
45618;SDS011;31343;47.520;19.144;2022-11-15T10:43:41;24.13;;;14.48;;
45618;SDS011;31343;47.520;19.144;2022-11-15T10:46:20;23.45;;;15.07;;
45618;SDS011;31343;47.520;19.144;2022-11-15T10:48:47;25.73;;;15.07;;
45618;SDS011;31343;47.520;19.144;2022-11-15T10:51:23;29.63;;;17.80;;
45618;SDS011;31343;47.520;19.144;2022-11-15T10:53:54;24.67;;;15.45;;
45618;SDS011;31343;47.520;19.144;2022-11-15T10:56:22;25.30;;;16.40;;
45618;SDS011;31343;47.520;19.144;2022-11-15T10:58:52;26.63;;;17.25;;
45618;SDS011;31343;47.520;19.144;2022-11-15T11:01:23;28.77;;;17.35;;
45618;SDS011;31343;47.520;19.144;2022-11-15T11:04:07;30.63;;;17.33;;
45618;SDS011;31343;47.520;19.144;2022-11-15T11:06:50;29.30;;;16.63;;
45618;SDS011;31343;47.520;19.144;2022-11-15T11:11:59;28.35;;;17.13;;
45618;SDS011;31343;47.520;19.144;2022-11-15T11:14:27;28.92;;;16.73;;
45618;SDS011;31343;47.520;19.144;2022-11-15T11:20:02;31.77;;;18.15;;
45618;SDS011;31343;47.520;19.144;2022-11-15T11:23:16;30.27;;;17.77;;
45618;SDS011;31343;47.520;19.144;2022-11-15T11:33:42;27.70;;;16.65;;
45618;SDS011;31343;47.520;19.144;2022-11-15T11:36:30;27.52;;;16.30;;
45618;SDS011;31343;47.520;19.144;2022-11-15T11:47:30;30.58;;;16.27;;
45618;SDS011;31343;47.520;19.144;2022-11-15T11:50:02;27.48;;;16.70;;
45618;SDS011;31343;47.520;19.144;2022-11-15T11:52:43;21.90;;;15.60;;
45618;SDS011;31343;47.520;19.144;2022-11-15T12:00:24;25.27;;;16.52;;
45618;SDS011;31343;47.520;19.144;2022-11-15T12:05:47;26.77;;;14.95;;
45618;SDS011;31343;47.520;19.144;2022-11-15T12:08:20;22.85;;;14.80;;
45618;SDS011;31343;47.520;19.144;2022-11-15T12:10:48;23.27;;;14.73;;
45618;SDS011;31343;47.520;19.144;2022-11-15T12:13:24;27.27;;;15.52;;
45618;SDS011;31343;47.520;19.144;2022-11-15T12:15:59;27.65;;;14.57;;
45618;SDS011;31343;47.520;19.144;2022-11-15T12:18:28;28.93;;;16.67;;
45618;SDS011;31343;47.520;19.144;2022-11-15T12:20:56;28.73;;;17.30;;
45618;SDS011;31343;47.520;19.144;2022-11-15T12:23:30;33.17;;;17.33;;
45618;SDS011;31343;47.520;19.144;2022-11-15T12:26:17;27.42;;;17.45;;
45618;SDS011;31343;47.520;19.144;2022-11-15T12:28:54;30.75;;;18.73;;
45618;SDS011;31343;47.520;19.144;2022-11-15T12:31:42;34.47;;;19.75;;
45618;SDS011;31343;47.520;19.144;2022-11-15T12:36:51;32.47;;;18.80;;
45618;SDS011;31343;47.520;19.144;2022-11-15T12:39:17;30.98;;;17.23;;
45618;SDS011;31343;47.520;19.144;2022-11-15T12:41:45;36.33;;;19.90;;
45618;SDS011;31343;47.520;19.144;2022-11-15T12:52:03;35.10;;;19.17;;
45618;SDS011;31343;47.520;19.144;2022-11-15T13:04:43;38.22;;;21.80;;
45618;SDS011;31343;47.520;19.144;2022-11-15T13:07:09;38.92;;;20.85;;
45618;SDS011;31343;47.520;19.144;2022-11-15T13:10:01;38.40;;;19.67;;
45618;SDS011;31343;47.520;19.144;2022-11-15T13:17:39;37.55;;;23.30;;
45618;SDS011;31343;47.520;19.144;2022-11-15T13:22:46;42.22;;;22.63;;
45618;SDS011;31343;47.520;19.144;2022-11-15T13:38:53;34.47;;;19.05;;
45618;SDS011;31343;47.520;19.144;2022-11-15T13:41:28;38.83;;;20.10;;
45618;SDS011;31343;47.520;19.144;2022-11-15T13:43:56;30.33;;;18.67;;
45618;SDS011;31343;47.520;19.144;2022-11-15T13:46:24;33.10;;;20.65;;
45618;SDS011;31343;47.520;19.144;2022-11-15T13:48:58;38.22;;;19.38;;
45618;SDS011;31343;47.520;19.144;2022-11-15T13:56:55;36.08;;;20.90;;
45618;SDS011;31343;47.520;19.144;2022-11-15T13:59:33;37.13;;;22.42;;
45618;SDS011;31343;47.520;19.144;2022-11-15T14:02:11;42.20;;;23.42;;
45618;SDS011;31343;47.520;19.144;2022-11-15T14:04:46;33.75;;;22.00;;
45618;SDS011;31343;47.520;19.144;2022-11-15T14:07:16;42.22;;;23.00;;
45618;SDS011;31343;47.520;19.144;2022-11-15T14:09:46;35.92;;;20.40;;
45618;SDS011;31343;47.520;19.144;2022-11-15T14:14:54;34.22;;;19.55;;
45618;SDS011;31343;47.520;19.144;2022-11-15T14:17:32;39.20;;;21.05;;
45618;SDS011;31343;47.520;19.144;2022-11-15T14:20:00;34.05;;;21.55;;
45618;SDS011;31343;47.520;19.144;2022-11-15T14:22:27;33.67;;;20.00;;
45618;SDS011;31343;47.520;19.144;2022-11-15T14:25:18;34.25;;;19.70;;
45618;SDS011;31343;47.520;19.144;2022-11-15T14:30:35;30.65;;;18.48;;
45618;SDS011;31343;47.520;19.144;2022-11-15T14:33:01;32.30;;;17.00;;
45618;SDS011;31343;47.520;19.144;2022-11-15T14:35:27;27.83;;;15.80;;
45618;SDS011;31343;47.520;19.144;2022-11-15T14:37:53;29.42;;;16.15;;
45618;SDS011;31343;47.520;19.144;2022-11-15T14:40:20;32.22;;;17.88;;
45618;SDS011;31343;47.520;19.144;2022-11-15T14:42:47;30.05;;;18.38;;
45618;SDS011;31343;47.520;19.144;2022-11-15T14:45:15;31.63;;;17.02;;
45618;SDS011;31343;47.520;19.144;2022-11-15T14:47:45;27.48;;;16.35;;
45618;SDS011;31343;47.520;19.144;2022-11-15T14:50:12;28.42;;;15.60;;
45618;SDS011;31343;47.520;19.144;2022-11-15T14:52:39;27.05;;;14.45;;
45618;SDS011;31343;47.520;19.144;2022-11-15T14:55:11;27.73;;;16.70;;
45618;SDS011;31343;47.520;19.144;2022-11-15T14:57:45;27.08;;;16.60;;
45618;SDS011;31343;47.520;19.144;2022-11-15T15:00:12;28.52;;;16.65;;
45618;SDS011;31343;47.520;19.144;2022-11-15T15:02:38;28.08;;;15.80;;
45618;SDS011;31343;47.520;19.144;2022-11-15T15:08:05;28.08;;;15.52;;
45618;SDS011;31343;47.520;19.144;2022-11-15T15:10:33;31.08;;;16.98;;
45618;SDS011;31343;47.520;19.144;2022-11-15T15:13:04;26.60;;;15.27;;
45618;SDS011;31343;47.520;19.144;2022-11-15T15:15:37;25.27;;;14.48;;
45618;SDS011;31343;47.520;19.144;2022-11-15T15:18:03;25.38;;;15.55;;
45618;SDS011;31343;47.520;19.144;2022-11-15T15:20:30;27.60;;;15.27;;
45618;SDS011;31343;47.520;19.144;2022-11-15T15:22:58;23.77;;;14.27;;
45618;SDS011;31343;47.520;19.144;2022-11-15T15:25:26;22.80;;;14.13;;
45618;SDS011;31343;47.520;19.144;2022-11-15T15:27:53;28.75;;;15.15;;
45618;SDS011;31343;47.520;19.144;2022-11-15T15:30:20;23.77;;;13.25;;
45618;SDS011;31343;47.520;19.144;2022-11-15T15:32:47;25.75;;;13.95;;
45618;SDS011;31343;47.520;19.144;2022-11-15T15:35:13;24.50;;;14.30;;
45618;SDS011;31343;47.520;19.144;2022-11-15T15:37:40;24.45;;;14.40;;
45618;SDS011;31343;47.520;19.144;2022-11-15T15:40:25;22.83;;;13.20;;
45618;SDS011;31343;47.520;19.144;2022-11-15T15:42:53;23.90;;;13.98;;
45618;SDS011;31343;47.520;19.144;2022-11-15T15:45:20;29.67;;;15.02;;
45618;SDS011;31343;47.520;19.144;2022-11-15T15:47:46;27.90;;;16.10;;
45618;SDS011;31343;47.520;19.144;2022-11-15T15:52:45;25.05;;;15.80;;
45618;SDS011;31343;47.520;19.144;2022-11-15T15:55:10;26.58;;;17.15;;
45618;SDS011;31343;47.520;19.144;2022-11-15T15:57:36;27.50;;;16.13;;
45618;SDS011;31343;47.520;19.144;2022-11-15T16:00:03;25.15;;;14.18;;
45618;SDS011;31343;47.520;19.144;2022-11-15T16:02:29;25.17;;;13.73;;
45618;SDS011;31343;47.520;19.144;2022-11-15T16:04:55;24.30;;;14.65;;
45618;SDS011;31343;47.520;19.144;2022-11-15T16:07:21;25.00;;;14.25;;
45618;SDS011;31343;47.520;19.144;2022-11-15T16:09:49;22.95;;;14.52;;
45618;SDS011;31343;47.520;19.144;2022-11-15T16:12:31;26.75;;;15.20;;
45618;SDS011;31343;47.520;19.144;2022-11-15T16:14:58;24.50;;;15.18;;
45618;SDS011;31343;47.520;19.144;2022-11-15T16:17:34;28.83;;;15.90;;
45618;SDS011;31343;47.520;19.144;2022-11-15T16:20:02;27.95;;;14.73;;
45618;SDS011;31343;47.520;19.144;2022-11-15T16:22:28;27.63;;;15.63;;
45618;SDS011;31343;47.520;19.144;2022-11-15T16:24:54;26.77;;;15.10;;
45618;SDS011;31343;47.520;19.144;2022-11-15T16:27:20;32.53;;;16.10;;
45618;SDS011;31343;47.520;19.144;2022-11-15T16:29:47;24.48;;;15.23;;
45618;SDS011;31343;47.520;19.144;2022-11-15T16:32:13;34.08;;;17.05;;
45618;SDS011;31343;47.520;19.144;2022-11-15T16:34:39;28.65;;;16.00;;
45618;SDS011;31343;47.520;19.144;2022-11-15T16:37:05;31.75;;;16.98;;
45618;SDS011;31343;47.520;19.144;2022-11-15T16:39:33;29.45;;;15.73;;
45618;SDS011;31343;47.520;19.144;2022-11-15T16:41:59;30.65;;;16.33;;
45618;SDS011;31343;47.520;19.144;2022-11-15T16:44:26;32.85;;;17.00;;
45618;SDS011;31343;47.520;19.144;2022-11-15T16:46:53;39.00;;;20.80;;
45618;SDS011;31343;47.520;19.144;2022-11-15T16:49:19;37.72;;;20.02;;